createdAt,value
2019-03-19T00:02:30.350Z,70.64
2019-03-19T00:06:37.546Z,70.70
2019-03-19T00:10:44.770Z,70.46
2019-03-19T00:14:53.047Z,70.85
2019-03-19T00:19:00.301Z,70.75
2019-03-19T00:23:07.688Z,71.29
2019-03-19T00:27:14.688Z,71.46
2019-03-19T00:31:24.919Z,71.74
2019-03-19T00:35:31.886Z,71.67
2019-03-19T00:39:38.996Z,71.81
2019-03-19T00:43:46.089Z,71.88
2019-03-19T00:47:52.870Z,72.28
2019-03-19T00:51:59.686Z,72.28
2019-03-19T00:56:06.572Z,72.68
2019-03-19T01:00:14.053Z,72.84
2019-03-19T01:04:21.188Z,72.56
2019-03-19T01:08:28.019Z,72.29
2019-03-19T01:12:34.838Z,73.13
2019-03-19T01:16:41.665Z,73.83
2019-03-19T01:20:48.509Z,74.57
2019-03-19T01:24:55.431Z,73.87
2019-03-19T01:29:02.252Z,74.20
2019-03-19T01:33:10.093Z,75.15
2019-03-19T01:37:16.882Z,75.74
2019-03-19T01:41:23.686Z,76.16
2019-03-19T01:45:30.498Z,75.70
2019-03-19T01:49:37.354Z,75.28
2019-03-19T01:53:44.181Z,76.80
2019-03-19T01:57:51.372Z,76.36
2019-03-19T02:01:58.254Z,76.26
2019-03-19T02:06:05.582Z,76.88
2019-03-19T02:10:12.482Z,77.32
2019-03-19T02:14:19.315Z,76.59
2019-03-19T02:18:26.261Z,77.17
2019-03-19T02:22:33.105Z,77.17
2019-03-19T02:26:40.491Z,78.01
2019-03-19T02:30:47.794Z,77.86
2019-03-19T02:34:55.222Z,77.55
2019-03-19T02:39:02.361Z,78.41
2019-03-19T02:43:09.925Z,79.20
2019-03-19T02:47:17.032Z,78.59
2019-03-19T02:51:24.063Z,78.69
2019-03-19T02:55:31.223Z,78.58
2019-03-19T02:59:38.159Z,79.53
2019-03-19T03:03:44.962Z,79.26
2019-03-19T03:07:51.850Z,78.47
2019-03-19T03:11:58.673Z,79.21
2019-03-19T03:16:05.522Z,80.13
2019-03-19T03:20:15.702Z,79.69
2019-03-19T03:24:22.981Z,79.92
2019-03-19T03:28:30.199Z,80.46
2019-03-19T03:32:37.298Z,80.80
2019-03-19T03:36:44.245Z,81.27
2019-03-19T03:40:51.355Z,81.44
2019-03-19T03:44:58.167Z,82.06
2019-03-19T03:49:05.106Z,81.87
2019-03-19T03:53:12.027Z,82.16
2019-03-19T03:57:18.926Z,82.21
2019-03-19T04:01:25.747Z,82.18
2019-03-19T04:05:32.742Z,82.83
2019-03-19T04:09:39.551Z,82.85
2019-03-19T04:13:46.368Z,83.08
2019-03-19T04:17:53.233Z,83.57
2019-03-19T04:22:00.049Z,83.07
2019-03-19T04:26:06.940Z,82.75
2019-03-19T04:30:14.029Z,83.26
2019-03-19T04:34:20.963Z,82.50
2019-03-19T04:38:27.811Z,82.99
2019-03-19T04:42:34.686Z,82.40
2019-03-19T04:46:41.557Z,82.97
2019-03-19T04:50:48.480Z,82.58
2019-03-19T04:54:55.538Z,82.88
2019-03-19T04:59:02.656Z,82.18
2019-03-19T05:03:09.487Z,82.30
2019-03-19T05:07:17.679Z,81.69
2019-03-19T05:11:24.688Z,82.27
2019-03-19T05:15:31.732Z,82.28
2019-03-19T05:19:38.683Z,82.26
2019-03-19T05:23:45.899Z,83.08
2019-03-19T05:27:53.121Z,82.70
2019-03-19T05:32:00.401Z,83.60
2019-03-19T05:36:09.104Z,82.76
2019-03-19T05:40:16.758Z,83.31
2019-03-19T05:44:23.956Z,83.28
2019-03-19T05:48:31.018Z,83.62
2019-03-19T05:52:38.345Z,84.19
2019-03-19T05:56:45.582Z,83.81
2019-03-19T06:00:52.649Z,84.12
2019-03-19T06:04:59.567Z,83.68
2019-03-19T06:09:10.632Z,84.10
2019-03-19T06:13:17.732Z,83.86
2019-03-19T06:17:24.758Z,83.35
2019-03-19T06:21:31.875Z,83.25
2019-03-19T06:25:38.797Z,82.96
2019-03-19T06:29:46.066Z,82.82
2019-03-19T06:33:53.017Z,82.97
2019-03-19T06:38:00.192Z,86.12
2019-03-19T06:42:07.234Z,82.12
2019-03-19T06:46:14.218Z,82.28
2019-03-19T06:50:21.263Z,81.71
2019-03-19T06:54:28.284Z,81.33
2019-03-19T06:58:38.889Z,81.44
2019-03-19T07:02:46.041Z,81.47
2019-03-19T07:06:53.009Z,80.96
2019-03-19T07:11:00.105Z,80.57
2019-03-19T07:15:09.109Z,79.57
2019-03-19T07:19:16.033Z,79.72
2019-03-19T07:23:23.324Z,79.31
2019-03-19T07:27:30.384Z,78.35
2019-03-19T07:31:37.351Z,77.87
2019-03-19T07:35:46.673Z,77.01
2019-03-19T07:39:53.658Z,76.71
2019-03-19T07:44:00.703Z,75.12
2019-03-19T07:48:07.840Z,74.81
2019-03-19T07:52:14.731Z,73.69
2019-03-19T07:56:21.652Z,73.08
2019-03-19T08:00:28.643Z,72.24
2019-03-19T08:04:35.764Z,71.63
2019-03-19T08:08:42.822Z,70.89
2019-03-19T08:12:49.690Z,70.14
2019-03-19T08:16:56.600Z,69.36
2019-03-19T08:21:03.692Z,68.23
2019-03-19T08:25:11.268Z,67.57
2019-03-19T08:29:18.298Z,67.49
2019-03-19T08:33:25.380Z,65.43
2019-03-19T08:37:32.343Z,63.73
2019-03-19T08:41:39.279Z,62.64
2019-03-19T08:45:46.323Z,60.45
2019-03-19T08:49:53.316Z,59.79
2019-03-19T08:54:00.227Z,60.32
2019-03-19T08:58:07.061Z,58.93
2019-03-19T09:02:13.978Z,57.89
2019-03-19T09:06:20.790Z,58.54
2019-03-19T09:10:27.655Z,56.54
2019-03-19T09:14:36.512Z,53.73
2019-03-19T09:18:44.598Z,53.42
2019-03-19T09:22:51.390Z,53.41
2019-03-19T09:26:58.298Z,52.09
2019-03-19T09:31:06.136Z,51.59
2019-03-19T09:35:13.495Z,50.13
2019-03-19T09:39:20.486Z,46.84
2019-03-19T09:43:27.376Z,48.67
2019-03-19T09:47:34.377Z,46.78
2019-03-19T09:51:41.261Z,47.00
2019-03-19T09:55:48.339Z,46.75
2019-03-19T09:59:55.238Z,49.86
2019-03-19T10:04:02.129Z,47.52
2019-03-19T10:08:08.926Z,48.39
2019-03-19T10:12:15.817Z,47.20
2019-03-19T10:16:22.712Z,48.21
2019-03-19T10:20:29.811Z,46.26
2019-03-19T10:24:36.670Z,45.49
2019-03-19T10:28:45.845Z,46.57
2019-03-19T10:32:52.810Z,45.97
2019-03-19T10:36:59.795Z,46.70
2019-03-19T10:41:06.933Z,45.93
2019-03-19T10:45:14.236Z,45.43
2019-03-19T10:49:21.180Z,45.35
2019-03-19T10:53:28.193Z,42.30
2019-03-19T10:57:35.309Z,42.54
2019-03-19T11:01:42.167Z,44.29
2019-03-19T11:05:49.165Z,46.64
2019-03-19T11:09:56.312Z,46.75
2019-03-19T11:14:03.110Z,47.25
2019-03-19T11:18:09.948Z,47.50
2019-03-19T11:22:16.888Z,46.65
2019-03-19T11:26:23.755Z,47.00
2019-03-19T11:30:30.616Z,45.44
2019-03-19T11:34:37.441Z,45.63
2019-03-19T11:38:44.293Z,45.44
2019-03-19T11:42:51.523Z,44.73
2019-03-19T11:46:58.426Z,42.75
2019-03-19T11:51:05.383Z,42.01
2019-03-19T11:55:12.724Z,39.73
2019-03-19T11:59:19.702Z,36.38
2019-03-19T12:03:27.163Z,35.46
2019-03-19T12:12:05.477Z,33.60
2019-03-19T12:16:12.452Z,33.59
2019-03-19T12:20:20.821Z,33.74
2019-03-19T12:24:28.052Z,32.49
2019-03-19T12:28:39.722Z,33.29
2019-03-19T12:32:43.510Z,31.53
2019-03-19T12:36:50.400Z,31.81
2019-03-19T12:40:57.425Z,30.92
2019-03-19T12:45:04.727Z,31.02
2019-03-19T12:49:12.024Z,32.07
2019-03-19T12:53:18.877Z,30.87
2019-03-19T12:57:25.764Z,32.88
2019-03-19T13:01:32.849Z,31.10
2019-03-19T13:05:40.215Z,32.66
2019-03-19T13:09:47.163Z,32.78
2019-03-19T13:13:53.981Z,31.64
2019-03-19T13:18:00.939Z,31.71
2019-03-19T13:22:07.831Z,32.13
2019-03-19T13:26:14.688Z,31.32
2019-03-19T13:30:21.808Z,30.73
2019-03-19T13:34:28.882Z,31.40
2019-03-19T13:38:35.762Z,31.39
2019-03-19T13:42:43.008Z,31.74
2019-03-19T13:46:49.998Z,32.19
2019-03-19T13:50:57.000Z,34.15
2019-03-19T13:55:03.993Z,33.43
2019-03-19T13:59:13.866Z,35.30
2019-03-19T14:03:20.757Z,34.15
2019-03-19T14:07:27.608Z,34.22
2019-03-19T14:11:35.074Z,33.50
2019-03-19T14:15:43.682Z,33.62
2019-03-19T14:19:51.370Z,34.55
2019-03-19T14:23:58.403Z,33.21
2019-03-19T14:28:05.622Z,32.67
2019-03-19T14:32:12.550Z,32.76
2019-03-19T14:36:19.456Z,33.45
2019-03-19T14:40:27.228Z,33.05
2019-03-19T14:44:34.191Z,33.85
2019-03-19T14:48:41.181Z,34.53
2019-03-19T14:52:48.170Z,35.44
2019-03-19T14:56:55.293Z,35.79
2019-03-19T15:01:03.390Z,36.22
2019-03-19T15:05:11.099Z,36.72
2019-03-19T15:09:17.927Z,37.20
2019-03-19T15:13:25.079Z,37.88
2019-03-19T15:17:34.485Z,37.69
2019-03-19T15:21:41.753Z,39.71
2019-03-19T15:25:48.813Z,40.92
2019-03-19T15:29:55.687Z,39.24
2019-03-19T15:34:02.609Z,40.71
2019-03-19T15:38:09.430Z,39.87
2019-03-19T15:42:16.420Z,40.52
2019-03-19T15:46:25.366Z,41.59
2019-03-19T15:50:32.210Z,40.52
2019-03-19T15:54:39.978Z,40.31
2019-03-19T15:58:46.941Z,40.92
2019-03-19T16:02:54.324Z,40.49
2019-03-19T16:07:02.083Z,41.28
2019-03-19T16:11:09.170Z,40.69
2019-03-19T16:15:17.096Z,40.72
2019-03-19T16:19:24.373Z,40.50
2019-03-19T16:23:31.947Z,40.33
2019-03-19T16:27:40.645Z,40.61
2019-03-19T16:31:51.178Z,40.74
2019-03-19T16:35:58.221Z,41.35
2019-03-19T16:40:08.999Z,41.04
2019-03-19T16:44:15.868Z,40.73
2019-03-19T16:48:23.359Z,41.22
2019-03-19T16:52:34.170Z,41.10
2019-03-19T16:56:42.289Z,41.30
2019-03-19T17:00:50.753Z,41.66
2019-03-19T17:04:59.181Z,41.90
2019-03-19T17:09:09.442Z,42.78
2019-03-19T17:13:17.845Z,43.74
2019-03-19T17:22:55.342Z,44.35
2019-03-19T17:27:02.236Z,45.01
2019-03-19T17:31:10.205Z,45.24
2019-03-19T17:35:17.182Z,45.76
2019-03-19T17:39:25.387Z,45.91
2019-03-19T17:43:32.925Z,46.11
2019-03-19T17:47:40.035Z,46.06
2019-03-19T17:51:46.895Z,46.40
2019-03-19T17:55:53.940Z,46.73
2019-03-19T18:00:00.839Z,46.78
2019-03-19T18:04:07.896Z,47.03
2019-03-19T18:08:14.863Z,47.60
2019-03-19T18:12:21.788Z,47.57
2019-03-19T18:16:28.885Z,48.40
2019-03-19T18:20:35.942Z,48.22
2019-03-19T18:24:46.199Z,48.94
2019-03-19T18:28:53.158Z,49.43
2019-03-19T18:33:00.751Z,49.99
2019-03-19T18:37:07.886Z,49.01
2019-03-19T18:41:14.974Z,50.76
2019-03-19T18:45:22.373Z,49.69
2019-03-19T18:49:29.628Z,50.95
2019-03-19T18:53:36.712Z,49.96
2019-03-19T18:57:43.701Z,50.61
2019-03-19T19:01:51.652Z,50.12
2019-03-19T19:05:58.807Z,49.90
2019-03-19T19:10:06.451Z,51.13
2019-03-19T19:14:13.530Z,49.90
2019-03-19T19:18:20.382Z,49.76
2019-03-19T19:22:27.260Z,50.25
2019-03-19T19:26:34.359Z,50.67
2019-03-19T19:30:41.416Z,50.74
2019-03-19T19:34:48.643Z,50.83
2019-03-19T19:38:55.611Z,52.44
2019-03-19T19:43:02.491Z,52.71
2019-03-19T19:47:09.501Z,51.74
2019-03-19T19:51:16.553Z,52.25
2019-03-19T19:55:23.902Z,55.72
2019-03-19T19:59:30.983Z,54.04
2019-03-19T20:03:38.063Z,53.65
2019-03-19T20:07:45.072Z,53.74
2019-03-19T20:11:51.998Z,54.85
2019-03-19T20:15:59.013Z,55.11
2019-03-19T20:20:08.351Z,55.13
2019-03-19T20:24:16.233Z,55.71
2019-03-19T20:28:25.089Z,54.84
2019-03-19T20:32:32.445Z,55.71
2019-03-19T20:36:39.411Z,56.11
2019-03-19T20:40:49.458Z,55.43
2019-03-19T20:44:57.386Z,55.64
2019-03-19T20:49:05.416Z,56.25
2019-03-19T20:53:12.455Z,56.37
2019-03-19T20:57:19.423Z,56.77
2019-03-19T21:01:26.496Z,56.94
2019-03-19T21:05:33.602Z,55.97
2019-03-19T21:09:40.679Z,56.35
2019-03-19T21:13:47.780Z,56.85
2019-03-19T21:17:54.810Z,56.98
2019-03-19T21:22:02.549Z,56.72
2019-03-19T21:26:09.988Z,58.25
2019-03-19T21:30:18.010Z,56.79
2019-03-19T21:34:25.549Z,57.37
2019-03-19T21:38:32.489Z,56.66
2019-03-19T21:42:39.735Z,56.81
2019-03-19T21:46:47.919Z,57.33
2019-03-19T21:50:55.102Z,60.10
2019-03-19T21:55:03.513Z,59.40
2019-03-19T21:59:10.946Z,59.58
2019-03-19T22:03:17.907Z,59.38
2019-03-19T22:07:25.104Z,59.97
2019-03-19T22:11:32.122Z,59.72
2019-03-19T22:15:39.328Z,59.66
2019-03-19T22:19:46.477Z,60.13
2019-03-19T22:23:53.359Z,60.49
2019-03-19T22:28:00.558Z,61.09
2019-03-19T22:32:07.571Z,61.79
2019-03-19T22:36:16.123Z,61.99
2019-03-19T22:40:23.281Z,62.11
2019-03-19T22:44:30.256Z,62.33
2019-03-19T22:48:37.127Z,62.72
2019-03-19T22:52:44.121Z,62.91
2019-03-19T22:56:51.082Z,63.33
2019-03-19T23:00:58.069Z,63.81
2019-03-19T23:05:05.747Z,64.39
2019-03-19T23:09:13.696Z,65.08
2019-03-19T23:13:20.533Z,65.22
2019-03-19T23:17:27.413Z,64.92
2019-03-19T23:21:34.310Z,65.62
2019-03-19T23:25:41.158Z,65.60
2019-03-19T23:29:48.301Z,66.68
2019-03-19T23:33:55.285Z,66.59
2019-03-19T23:38:02.313Z,67.24
2019-03-19T23:42:09.428Z,67.02
2019-03-19T23:46:19.865Z,67.76
2019-03-19T23:50:26.833Z,67.93
2019-03-19T23:54:33.677Z,68.32
2019-03-19T23:58:41.765Z,68.42
